Terminal Aerodrome Forecast
Issued by NWS St Louis, MO

Home | Current Version | Previous Version | Graphics & Text | Print | Product List | Glossary On
Versions: 1 2 3 4 5 6 7 8 9 10 11 12 13 14 15 16 17 18 19 20 21 22 23 24
000
FTUS43 KLSX 241908 AAA
TAFCOU
TAF AMD
KCOU 241908Z 2419/2518 18012KT P6SM VCTS BKN050CB
      TEMPO 2419/2422 6SM -SHRA BKN040
     FM250000 16010KT 5SM -TSRA OVC045CB
     FM250300 14009KT 3SM -TSRA OVC020CB
     FM250600 14007KT P6SM VCSH OVC025
     FM251100 15004KT P6SM BKN060
     FM251600 16008KT P6SM VCTS BKN050CB=

USA.gov is the U.S. government's official web portal to all federal, state and local government web resources and services.